Time;durP1;ratioP1;P1;durP2;ratioP2;P2;SDS_P1;SDS_P2;PMS_P1;PMS_P2;Temp;Humidity;BMP_temperature;BMP_pressure;BME280_temperature;BME280_humidity;BME280_pressure;Samples;Min_cycle;Max_cycle;Signal;HPM_P1;HPM_P2
2022/04/17 00:00:14;;;;;;;;;;;;;;;7.90;62.17;102216.44;4984822;28;2198;-96
2022/04/17 00:02:41;;;;;;;;;;;;;;;7.89;61.92;102210.25;4980888;28;1425;-96
2022/04/17 00:05:08;;;;;;;;;;;;;;;7.87;61.87;102209.56;4976365;28;1380;-96
2022/04/17 00:07:35;;;;;;;;;;;;;;;7.87;61.80;102209.56;4972905;28;1350;-96
2022/04/17 00:10:02;;;;;;;;;;;;;;;7.88;61.90;102205.03;4972241;28;1979;-96
2022/04/17 00:12:29;;;;;;;;;;;;;;;7.86;61.76;102210.56;4987427;28;1450;-96
2022/04/17 00:14:56;;;;;;;;;;;;;;;7.85;61.80;102211.59;4986628;28;1943;-96
2022/04/17 00:17:23;;;;;;;;;;;;;;;7.85;61.71;102206.22;4991137;28;1271;-96
2022/04/17 00:19:50;;;;;;;;;;;;;;;7.84;61.68;102207.19;4990619;28;1498;-96
2022/04/17 00:22:17;;;;;;;;;;;;;;;7.83;61.97;102205.53;4985564;28;1700;-96
2022/04/17 00:24:43;;;;;;;;;;;;;;;7.83;61.86;102202.03;4988684;28;2839;-96
2022/04/17 00:27:10;;;;;;;;;;;;;;;7.83;61.81;102196.66;4978329;28;1706;-96
2022/04/17 00:29:37;;;;;;;;;;;;;;;7.82;62.03;102195.78;4977964;28;2426;-96
2022/04/17 00:32:05;;;;;;;;;;;;;;;7.81;61.57;102196.78;4990866;28;1674;-96
2022/04/17 00:34:31;;;;;;;;;;;;;;;7.80;61.45;102192.44;4990799;28;2282;-96
2022/04/17 00:37:00;;;;;;;;;;;;;;;7.81;61.62;102193.28;4991555;28;1231;-96
2022/04/17 00:39:29;;;;;;;;;;;;;;;7.80;61.79;102188.94;4978279;28;2204;-96
2022/04/17 00:41:56;;;;;;;;;;;;;;;7.78;61.47;102197.13;4992733;28;3398;-96
2022/04/17 00:44:22;;;;;;;;;;;;;;;7.78;61.52;102194.44;4978304;28;2330;-96
2022/04/17 00:46:50;;;;;;;;;;;;;;;7.78;61.42;102194.44;4984169;28;2644;-96
2022/04/17 00:49:17;;;;;;;;;;;;;;;7.77;61.80;102194.63;4986818;28;1978;-96
2022/04/17 00:51:43;;;;;;;;;;;;;;;7.77;61.76;102192.78;4976502;28;1600;-96
2022/04/17 00:54:12;;;;;;;;;;;;;;;7.75;61.62;102189.41;4992309;28;2090;-96
2022/04/17 00:56:39;;;;;;;;;;;;;;;7.76;61.44;102183.03;4982984;28;1349;-96
2022/04/17 00:59:06;;;;;;;;;;;;;;;7.76;61.70;102190.22;4985899;28;1381;-96
2022/04/17 01:01:33;;;;;;;;;;;;;;;7.74;61.86;102193.09;4998653;28;1594;-96
2022/04/17 01:04:00;;;;;;;;;;;;;;;7.74;61.46;102193.09;4988483;28;1619;-96
2022/04/17 01:06:27;;;;;;;;;;;;;;;7.72;61.67;102187.88;4975291;28;1352;-96
2022/04/17 01:08:54;;;;;;;;;;;;;;;7.72;61.72;102192.41;4989882;28;2380;-96
2022/04/17 01:11:22;;;;;;;;;;;;;;;7.72;61.44;102184.34;4985572;28;1364;-96
2022/04/17 01:13:49;;;;;;;;;;;;;;;7.71;61.34;102193.41;4996040;28;1644;-96
2022/04/17 01:16:17;;;;;;;;;;;;;;;7.72;61.32;102192.41;4992773;28;1723;-96
2022/04/17 01:18:45;;;;;;;;;;;;;;;7.70;61.59;102189.88;4972897;28;1289;-96
2022/04/17 01:21:12;;;;;;;;;;;;;;;7.70;61.55;102192.56;4978027;28;1840;-96
2022/04/17 01:29:08;;;;;;;;;;;;;;;7.68;61.29;102188.38;4986955;28;3386;-96
2022/04/17 01:31:35;;;;;;;;;;;;;;;7.66;61.71;102183.16;4977881;28;1539;-96
2022/04/17 01:34:02;;;;;;;;;;;;;;;7.66;61.45;102182.31;4986867;28;1350;-96
2022/04/17 01:36:29;;;;;;;;;;;;;;;7.66;61.39;102183.16;4990700;28;1338;-96
2022/04/17 01:38:56;;;;;;;;;;;;;;;7.65;61.31;102183.34;4976721;28;1578;-96
2022/04/17 01:41:26;;;;;;;;;;;;;;;7.64;61.21;102171.75;4999589;28;2048;-96
2022/04/17 01:43:53;;;;;;;;;;;;;;;7.64;61.29;102176.28;4978225;28;2068;-96
2022/04/17 01:46:22;;;;;;;;;;;;;;;7.63;61.14;102178.13;4986409;28;1296;-96
2022/04/17 01:48:49;;;;;;;;;;;;;;;7.65;61.33;102172.59;4987058;28;1984;-96
2022/04/17 01:51:16;;;;;;;;;;;;;;;7.63;61.40;102170.06;4989352;28;2331;-96
2022/04/17 01:53:42;;;;;;;;;;;;;;;7.63;61.43;102172.75;4989711;28;1480;-96
2022/04/17 01:56:09;;;;;;;;;;;;;;;7.62;61.08;102175.63;4988961;28;1348;-96
2022/04/17 01:58:37;;;;;;;;;;;;;;;7.61;61.12;102168.56;4988414;28;2338;-96
2022/04/17 02:01:05;;;;;;;;;;;;;;;7.60;61.37;102178.44;4986994;28;2014;-96
2022/04/17 02:03:32;;;;;;;;;;;;;;;7.58;61.38;102182.28;4978218;28;1605;-96
2022/04/17 02:06:00;;;;;;;;;;;;;;;7.59;61.26;102176.78;4971382;28;2070;-96
2022/04/17 02:08:27;;;;;;;;;;;;;;;7.58;60.96;102174.22;4970144;28;1237;-96
2022/04/17 02:10:54;;;;;;;;;;;;;;;7.58;61.17;102171.56;4979059;28;1895;-96
2022/04/17 02:13:23;;;;;;;;;;;;;;;7.57;61.12;102175.25;4988232;28;2264;-96
2022/04/17 02:15:53;;;;;;;;;;;;;;;7.56;61.28;102178.91;4990191;28;1359;-96
2022/04/17 02:18:21;;;;;;;;;;;;;;;7.54;60.95;102168.34;4988176;28;2268;-96
2022/04/17 02:20:48;;;;;;;;;;;;;;;7.53;61.34;102164.00;4988468;28;1444;-96
2022/04/17 02:23:15;;;;;;;;;;;;;;;7.53;61.13;102160.47;4986836;28;1903;-96
2022/04/17 02:25:41;;;;;;;;;;;;;;;7.53;60.93;102160.47;4989547;28;1986;-96
2022/04/17 02:28:09;;;;;;;;;;;;;;;7.51;61.35;102164.16;4989965;28;1344;-96
2022/04/17 02:30:36;;;;;;;;;;;;;;;7.51;61.39;102166.84;4988874;28;2786;-96
2022/04/17 02:33:03;;;;;;;;;;;;;;;7.50;61.12;102159.81;4989923;28;1265;-96
2022/04/17 02:35:30;;;;;;;;;;;;;;;7.49;61.16;102163.47;4982128;28;1955;-96
2022/04/17 02:37:57;;;;;;;;;;;;;;;7.48;61.07;102161.78;4993786;28;2018;-96
2022/04/17 02:40:23;;;;;;;;;;;;;;;7.48;61.30;102163.63;4990188;28;1708;-96
2022/04/17 02:42:53;;;;;;;;;;;;;;;7.47;61.01;102165.47;4990350;28;1943;-96
2022/04/17 02:45:20;;;;;;;;;;;;;;;7.47;61.37;102168.16;4991687;28;2688;-96
2022/04/17 02:47:48;;;;;;;;;;;;;;;7.46;61.17;102162.94;4982787;28;2447;-96
2022/04/17 02:50:17;;;;;;;;;;;;;;;7.44;61.03;102159.56;4988904;28;1903;-96
2022/04/17 02:52:44;;;;;;;;;;;;;;;7.43;61.27;102153.38;4991104;28;1931;-96
2022/04/17 02:55:11;;;;;;;;;;;;;;;7.44;61.10;102151.53;4981214;28;2114;-96
2022/04/17 02:57:38;;;;;;;;;;;;;;;7.43;60.85;102148.03;4993458;28;1284;-96
2022/04/17 03:00:05;;;;;;;;;;;;;;;7.41;61.45;102150.03;4984123;28;1310;-96
2022/04/17 03:05:37;;;;;;;;;;;;;;;7.41;61.25;102154.53;4988708;28;2311;-96
2022/04/17 03:08:04;;;;;;;;;;;;;;;7.39;61.34;102144.00;4993603;28;3753;-96
2022/04/17 03:10:31;;;;;;;;;;;;;;;7.38;60.96;102147.69;4994382;28;1883;-96
2022/04/17 03:13:00;;;;;;;;;;;;;;;7.38;61.34;102144.13;4982550;28;1388;-96
2022/04/17 03:15:27;;;;;;;;;;;;;;;7.36;61.32;102135.44;4975956;28;1322;-96
2022/04/17 03:17:54;;;;;;;;;;;;;;;7.37;60.87;102140.63;4990069;28;1321;-96
2022/04/17 03:20:21;;;;;;;;;;;;;;;7.37;61.28;102137.09;4973073;28;2344;-96
2022/04/17 03:22:48;;;;;;;;;;;;;;;7.37;61.27;102139.78;4983165;28;2293;-96
2022/04/17 03:25:16;;;;;;;;;;;;;;;7.35;61.10;102145.28;4986322;28;2066;-96
2022/04/17 03:27:46;;;;;;;;;;;;;;;7.36;60.86;102146.16;4990121;28;1333;-96
2022/04/17 03:30:14;;;;;;;;;;;;;;;7.34;61.08;102151.66;4991658;28;1903;-96
2022/04/17 03:32:41;;;;;;;;;;;;;;;7.33;60.97;102147.31;4991136;28;1325;-96
2022/04/17 03:35:08;;;;;;;;;;;;;;;7.33;61.16;102151.84;4989352;28;1374;-96
2022/04/17 03:37:35;;;;;;;;;;;;;;;7.31;61.24;102151.97;4987196;28;1427;-96
2022/04/17 03:40:02;;;;;;;;;;;;;;;7.32;61.08;102142.09;4992362;28;1332;-96
2022/04/17 03:42:28;;;;;;;;;;;;;;;7.32;61.14;102142.09;4974676;28;2216;-96
2022/04/17 03:44:59;;;;;;;;;;;;;;;7.30;61.18;102138.75;4983443;28;2062;-96
2022/04/17 03:47:26;;;;;;;;;;;;;;;7.30;60.86;102142.28;4989739;28;1301;-96
2022/04/17 03:49:53;;;;;;;;;;;;;;;7.30;60.95;102138.75;4983097;28;3616;-96
2022/04/17 03:52:20;;;;;;;;;;;;;;;7.30;60.86;102138.75;4992027;28;1920;-96
2022/04/17 03:54:47;;;;;;;;;;;;;;;7.29;60.81;102145.94;4988404;28;1624;-96
2022/04/17 03:57:14;;;;;;;;;;;;;;;7.27;61.08;102137.22;4982120;28;2728;-96
2022/04/17 03:59:41;;;;;;;;;;;;;;;7.27;61.20;102140.75;4989508;28;4105;-96
2022/04/17 04:02:08;;;;;;;;;;;;;;;7.26;60.86;102138.22;4987613;28;1551;-96
2022/04/17 04:04:37;;;;;;;;;;;;;;;7.26;60.74;102136.41;4972776;28;1150;-96
2022/04/17 04:07:04;;;;;;;;;;;;;;;7.24;61.06;102138.38;4989825;28;1412;-96
2022/04/17 04:09:31;;;;;;;;;;;;;;;7.24;61.01;102138.38;4985075;28;1977;-96
2022/04/17 04:11:58;;;;;;;;;;;;;;;7.24;60.95;102143.75;4994613;28;1167;-96
2022/04/17 04:14:25;;;;;;;;;;;;;;;7.24;60.79;102137.56;5004695;28;1455;-96
2022/04/17 04:16:53;;;;;;;;;;;;;;;7.23;60.77;102141.22;4987138;28;2003;-96
2022/04/17 04:19:20;;;;;;;;;;;;;;;7.25;61.09;102147.25;4987823;28;1209;-96
2022/04/17 04:21:51;;;;;;;;;;;;;;;7.23;60.67;102144.72;4973797;28;2367;-96
2022/04/17 04:24:19;;;;;;;;;;;;;;;7.21;60.96;102136.03;4991517;28;1257;-96
2022/04/17 04:28:32;;;;;;;;;;;;;;;7.22;61.00;102140.38;4991122;28;2031;-96
2022/04/17 04:29:32;;;;;;;;;;;;;;;7.21;61.03;102137.88;4988669;28;1279;-96
2022/04/17 04:31:58;;;;;;;;;;;;;;;7.21;61.02;102145.91;4989110;28;2435;-96
2022/04/17 04:34:26;;;;;;;;;;;;;;;7.18;60.92;102144.38;4990032;28;2065;-96
2022/04/17 04:36:53;;;;;;;;;;;;;;;7.19;61.08;102143.38;4986096;28;1417;-96
2022/04/17 04:39:19;;;;;;;;;;;;;;;7.18;61.00;102141.72;4980440;28;2175;-96
2022/04/17 04:41:47;;;;;;;;;;;;;;;7.18;60.55;102148.91;4991696;28;1357;-96
2022/04/17 04:44:15;;;;;;;;;;;;;;;7.18;60.50;102146.22;4989724;28;1248;-96
2022/04/17 04:46:41;;;;;;;;;;;;;;;7.18;60.95;102143.56;4986594;28;1639;-96
2022/04/17 04:51:52;;;;;;;;;;;;;;;7.15;60.64;102151.91;4990073;28;1957;-96
2022/04/17 04:54:19;;;;;;;;;;;;;;;7.13;60.95;102141.34;4985281;28;1420;-96
2022/04/17 04:56:46;;;;;;;;;;;;;;;7.15;60.56;102138.50;4989723;28;2538;-96
2022/04/17 04:59:12;;;;;;;;;;;;;;;7.14;60.85;102144.84;4990905;28;1298;-96
2022/04/17 05:01:39;;;;;;;;;;;;;;;7.12;60.53;102147.69;4991635;28;1749;-96
2022/04/17 05:04:06;;;;;;;;;;;;;;;7.11;60.87;102143.31;4990617;28;2059;-96
2022/04/17 05:06:34;;;;;;;;;;;;;;;7.12;60.52;102146.84;4990485;28;2072;-96
2022/04/17 05:09:02;;;;;;;;;;;;;;;7.11;60.53;102134.44;4987666;28;1395;-96
2022/04/17 05:11:31;;;;;;;;;;;;;;;7.10;60.48;102141.66;4981845;28;2626;-96
2022/04/17 05:13:58;;;;;;;;;;;;;;;7.12;60.68;102146.84;4991501;28;1246;-96
2022/04/17 05:16:26;;;;;;;;;;;;;;;7.10;60.74;102138.97;4988405;28;2021;-96
2022/04/17 05:19:19;;;;;;;;;;;;;;;7.11;60.90;102139.81;4983370;28;1218;-96
2022/04/17 05:21:40;;;;;;;;;;;;;;;7.10;60.71;102138.13;4992292;28;1452;-96
2022/04/17 05:24:07;;;;;;;;;;;;;;;7.08;60.63;102132.91;5000298;28;1530;-96
2022/04/17 05:26:34;;;;;;;;;;;;;;;7.07;60.93;102133.94;4990232;28;1499;-96
2022/04/17 05:29:03;;;;;;;;;;;;;;;7.09;60.45;102136.44;4991137;28;1984;-96
2022/04/17 05:31:30;;;;;;;;;;;;;;;7.07;60.54;102138.44;4990077;28;1975;-96
2022/04/17 05:33:58;;;;;;;;;;;;;;;7.05;60.91;102141.28;4983890;28;2010;-96
2022/04/17 05:36:25;;;;;;;;;;;;;;;7.05;60.74;102133.25;4973616;28;2066;-96
2022/04/17 05:38:54;;;;;;;;;;;;;;;7.03;60.70;102133.41;4990576;28;1308;-96
2022/04/17 05:41:20;;;;;;;;;;;;;;;7.03;60.74;102138.78;4983147;28;2226;-96
2022/04/17 05:43:48;;;;;;;;;;;;;;;7.02;60.58;102138.91;4999983;28;1654;-96
2022/04/17 05:46:14;;;;;;;;;;;;;;;7.03;60.79;102137.94;4987263;28;2105;-96
2022/04/17 05:51:28;;;;;;;;;;;;;;;7.02;60.63;102141.59;5005563;28;1965;-96
2022/04/17 05:53:55;;;;;;;;;;;;;;;7.00;60.76;102147.13;4981050;28;1913;-96
2022/04/17 05:56:22;;;;;;;;;;;;;;;7.00;60.56;102151.63;4969561;28;2257;-96
2022/04/17 05:58:49;;;;;;;;;;;;;;;6.98;60.84;102150.97;4973936;28;1659;-96
2022/04/17 06:01:15;;;;;;;;;;;;;;;6.99;60.43;102147.25;4994461;28;1611;-96
2022/04/17 06:03:42;;;;;;;;;;;;;;;6.98;60.74;102148.28;4970279;28;2344;-96
2022/04/17 06:06:09;;;;;;;;;;;;;;;6.97;60.81;102147.44;4988505;28;1907;-96
2022/04/17 06:08:36;;;;;;;;;;;;;;;6.98;60.72;102145.59;4990753;28;1301;-96
2022/04/17 06:11:03;;;;;;;;;;;;;;;6.97;60.73;102151.94;4988473;28;2335;-96
2022/04/17 06:13:30;;;;;;;;;;;;;;;6.96;60.66;102150.25;5004961;28;1433;-96
2022/04/17 06:15:57;;;;;;;;;;;;;;;6.96;60.82;102158.28;4976504;28;1352;-96
2022/04/17 06:18:24;;;;;;;;;;;;;;;6.94;60.36;102150.44;4986533;28;1437;-96
2022/04/17 06:20:51;;;;;;;;;;;;;;;6.95;60.59;102145.91;4999133;28;1665;-96
2022/04/17 06:23:18;;;;;;;;;;;;;;;6.94;60.53;102138.84;4987828;28;3120;-96
2022/04/17 06:25:45;;;;;;;;;;;;;;;6.92;60.33;102141.69;4985703;28;1366;-96
2022/04/17 06:28:15;;;;;;;;;;;;;;;6.93;60.75;102140.69;4981639;28;3364;-96
2022/04/17 06:30:48;;;;;;;;;;;;;;;6.92;60.77;102136.34;4983749;28;2090;-96
2022/04/17 06:33:15;;;;;;;;;;;;;;;6.92;60.72;102132.84;4991871;28;1220;-96
2022/04/17 06:35:42;;;;;;;;;;;;;;;6.92;60.36;102139.03;4990080;28;1204;-96
2022/04/17 06:38:10;;;;;;;;;;;;;;;6.92;60.63;102139.03;4982788;28;1516;-96
2022/04/17 06:40:38;;;;;;;;;;;;;;;6.91;60.39;102139.16;4978239;28;3089;-96
2022/04/17 06:43:19;;;;;;;;;;;;;;;6.90;60.29;102132.97;4992131;28;1067;-96
2022/04/17 06:45:45;;;;;;;;;;;;;;;6.89;60.75;102128.63;4984667;28;2984;-96
2022/04/17 06:48:13;;;;;;;;;;;;;;;6.89;60.26;102131.31;4985173;28;2089;-96
2022/04/17 06:50:40;;;;;;;;;;;;;;;6.88;60.27;102132.28;4983406;28;2420;-96
2022/04/17 06:53:07;;;;;;;;;;;;;;;6.88;60.25;102121.56;4992160;28;2271;-96
2022/04/17 06:55:34;;;;;;;;;;;;;;;6.88;60.31;102123.41;4987040;28;2085;-96
2022/04/17 06:58:02;;;;;;;;;;;;;;;6.88;60.21;102128.78;4998240;28;1632;-96
2022/04/17 07:00:28;;;;;;;;;;;;;;;6.88;60.48;102126.09;4981660;28;3368;-96
2022/04/17 07:02:54;;;;;;;;;;;;;;;6.88;60.22;102128.78;4979352;28;2279;-96
2022/04/17 07:05:21;;;;;;;;;;;;;;;6.86;60.46;102126.25;4994097;28;1584;-96
2022/04/17 07:07:47;;;;;;;;;;;;;;;6.86;60.48;102130.78;4990928;28;1962;-96
2022/04/17 07:10:14;;;;;;;;;;;;;;;6.85;60.42;102129.09;4975254;28;2753;-96
2022/04/17 07:12:42;;;;;;;;;;;;;;;6.85;60.57;102123.72;4978105;28;3638;-96
2022/04/17 07:15:09;;;;;;;;;;;;;;;6.85;60.39;102124.56;4980050;28;1786;-96
2022/04/17 07:17:36;;;;;;;;;;;;;;;6.85;60.57;102127.25;4975491;28;2989;-96
2022/04/17 07:20:05;;;;;;;;;;;;;;;6.84;60.24;102125.56;4966765;28;1326;-96
2022/04/17 07:22:32;;;;;;;;;;;;;;;6.83;60.52;102118.53;4982886;28;2054;-96
2022/04/17 07:25:01;;;;;;;;;;;;;;;6.83;60.16;102118.53;4988488;28;3684;-96
2022/04/17 07:27:27;;;;;;;;;;;;;;;6.83;60.48;102123.91;4996404;28;1984;-96
2022/04/17 07:29:54;;;;;;;;;;;;;;;6.82;60.53;102122.19;4972383;28;3271;-96
2022/04/17 07:32:21;;;;;;;;;;;;;;;6.84;60.17;102122.91;4982278;28;1981;-96
2022/04/17 07:34:47;;;;;;;;;;;;;;;6.82;60.32;102120.38;4977655;28;3830;-96
2022/04/17 07:37:14;;;;;;;;;;;;;;;6.82;60.50;102116.84;4979179;28;3108;-96
2022/04/17 07:39:40;;;;;;;;;;;;;;;6.81;60.49;102120.53;4969150;28;2342;-96
2022/04/17 07:42:07;;;;;;;;;;;;;;;6.80;60.28;102127.72;4973919;28;3532;-96
2022/04/17 07:44:35;;;;;;;;;;;;;;;6.81;60.46;102126.72;4981041;28;1234;-96
2022/04/17 07:47:02;;;;;;;;;;;;;;;6.79;60.31;102114.47;4980567;28;2077;-96
2022/04/17 07:49:28;;;;;;;;;;;;;;;6.78;60.53;102113.66;4981741;28;1194;-96
2022/04/17 07:51:56;;;;;;;;;;;;;;;6.79;60.38;102120.69;4966228;28;3808;-96
2022/04/17 07:54:23;;;;;;;;;;;;;;;6.81;60.05;102118.69;4993669;28;3877;-96
2022/04/17 07:56:49;;;;;;;;;;;;;;;6.80;60.19;102126.91;4978563;28;1394;-96
2022/04/17 07:59:16;;;;;;;;;;;;;;;6.79;60.12;102117.16;4966360;28;2054;-96
2022/04/17 08:01:45;;;;;;;;;;;;;;;6.79;60.06;102127.88;4971815;28;2154;-96
2022/04/17 08:04:12;;;;;;;;;;;;;;;6.76;60.46;102120.97;4980514;28;1967;-96
2022/04/17 08:06:38;;;;;;;;;;;;;;;6.77;60.43;102122.69;4978433;28;3503;-96
2022/04/17 08:09:05;;;;;;;;;;;;;;;6.77;60.27;102119.19;4981441;28;1200;-96
2022/04/17 08:11:31;;;;;;;;;;;;;;;6.76;60.42;102123.66;4973594;28;4106;-96
2022/04/17 08:13:58;;;;;;;;;;;;;;;6.76;60.24;102118.31;4979028;28;1207;-96
2022/04/17 08:16:24;;;;;;;;;;;;;;;6.76;60.27;102120.16;4963315;28;3684;-96
2022/04/17 08:18:51;;;;;;;;;;;;;;;6.75;60.31;102131.88;4963656;28;3254;-96
2022/04/17 08:21:17;;;;;;;;;;;;;;;6.76;60.24;102120.97;4980818;28;1523;-96
2022/04/17 08:23:44;;;;;;;;;;;;;;;6.76;60.33;102122.81;4976749;28;3692;-96
2022/04/17 08:26:11;;;;;;;;;;;;;;;6.75;60.35;102121.16;4980379;28;1264;-96
2022/04/17 08:28:37;;;;;;;;;;;;;;;6.75;60.12;102123.84;4976281;28;1988;-96
2022/04/17 08:31:04;;;;;;;;;;;;;;;6.74;60.04;102123.00;4981498;28;1902;-96
2022/04/17 08:33:32;;;;;;;;;;;;;;;6.75;60.25;102124.66;4971813;28;3822;-96
2022/04/17 08:35:59;;;;;;;;;;;;;;;6.75;60.21;102126.50;4976527;28;2998;-96
2022/04/17 08:38:25;;;;;;;;;;;;;;;6.75;60.23;102138.06;4990032;28;3676;-96
2022/04/17 08:40:52;;;;;;;;;;;;;;;6.74;60.11;102138.22;4978402;28;3463;-96
2022/04/17 08:43:21;;;;;;;;;;;;;;;6.74;60.13;102125.69;4981057;28;1162;-96
2022/04/17 08:45:49;;;;;;;;;;;;;;;6.73;60.12;102123.16;4979149;28;3599;-96
2022/04/17 08:48:16;;;;;;;;;;;;;;;6.73;60.30;102123.97;4978808;28;3476;-96
2022/04/17 08:50:43;;;;;;;;;;;;;;;6.73;60.18;102123.16;4973881;28;4218;-96
2022/04/17 08:53:09;;;;;;;;;;;;;;;6.73;60.29;102117.78;4967796;28;3639;-96
2022/04/17 08:55:36;;;;;;;;;;;;;;;6.73;60.02;102120.47;4981247;28;1360;-96
2022/04/17 08:58:02;;;;;;;;;;;;;;;6.72;60.35;102124.97;4975830;28;3766;-96
2022/04/17 09:00:29;;;;;;;;;;;;;;;6.74;60.11;102119.50;4965845;28;1616;-96
2022/04/17 09:02:56;;;;;;;;;;;;;;;6.73;60.28;102125.81;4982954;28;3762;-96
2022/04/17 09:05:22;;;;;;;;;;;;;;;6.72;60.07;102114.28;4974990;28;3410;-96
2022/04/17 09:07:49;;;;;;;;;;;;;;;6.74;59.82;102119.50;4964197;28;4122;-96
2022/04/17 09:10:16;;;;;;;;;;;;;;;6.73;60.15;102115.94;4975949;28;2006;-96
2022/04/17 09:12:42;;;;;;;;;;;;;;;6.75;60.12;102119.31;4977198;28;1985;-96
2022/04/17 09:15:09;;;;;;;;;;;;;;;6.72;59.94;102110.75;4977078;28;3823;-96
2022/04/17 09:17:35;;;;;;;;;;;;;;;6.72;60.27;102110.75;4976627;28;2105;-96
2022/04/17 09:20:02;;;;;;;;;;;;;;;6.72;59.94;102108.91;4965265;28;1246;-96
2022/04/17 09:22:28;;;;;;;;;;;;;;;6.73;60.23;102113.25;4974661;28;3847;-96
2022/04/17 09:24:55;;;;;;;;;;;;;;;6.72;59.96;102114.28;4980209;28;1539;-96
2022/04/17 09:27:22;;;;;;;;;;;;;;;6.71;59.84;102109.09;4973315;28;4427;-96
2022/04/17 09:29:48;;;;;;;;;;;;;;;6.72;60.29;102105.41;4963212;28;3444;-96
2022/04/17 09:32:16;;;;;;;;;;;;;;;6.72;60.12;102102.72;4979945;28;1887;-96
2022/04/17 09:34:42;;;;;;;;;;;;;;;6.71;59.84;102104.56;4977699;28;3821;-96
2022/04/17 09:37:09;;;;;;;;;;;;;;;6.72;59.96;102102.72;4961464;28;1609;-96
2022/04/17 09:39:36;;;;;;;;;;;;;;;6.72;60.10;102105.41;4993321;28;3635;-96
2022/04/17 09:42:03;;;;;;;;;;;;;;;6.72;60.20;102102.72;4993771;28;1194;-96
2022/04/17 09:44:29;;;;;;;;;;;;;;;6.72;59.91;102100.06;4994960;28;3369;-96
2022/04/17 09:46:56;;;;;;;;;;;;;;;6.74;59.88;102098.06;4979043;28;2105;-96
2022/04/17 09:49:23;;;;;;;;;;;;;;;6.73;59.81;102099.03;4980445;28;4105;-96
2022/04/17 09:51:49;;;;;;;;;;;;;;;6.73;59.85;102088.34;4976660;28;2022;-96
2022/04/17 09:54:17;;;;;;;;;;;;;;;6.73;59.90;102091.00;4982166;28;1348;-96
2022/04/17 09:56:45;;;;;;;;;;;;;;;6.72;60.20;102081.31;4977503;28;2051;-96
2022/04/17 09:59:12;;;;;;;;;;;;;;;6.74;59.82;102077.47;4996288;28;3695;-96
2022/04/17 10:01:38;;;;;;;;;;;;;;;6.73;59.88;102067.75;4980525;28;1702;-96
2022/04/17 10:04:05;;;;;;;;;;;;;;;6.72;59.98;102062.56;4976608;28;2141;-96
2022/04/17 10:06:31;;;;;;;;;;;;;;;6.72;60.20;102063.41;4966160;28;1469;-96
2022/04/17 10:08:58;;;;;;;;;;;;;;;6.71;59.87;102059.06;4973629;28;3582;-96
2022/04/17 10:11:24;;;;;;;;;;;;;;;6.72;60.14;102055.38;4966921;28;1955;-96
2022/04/17 10:13:51;;;;;;;;;;;;;;;6.73;60.28;102058.88;4976911;28;4120;-96
2022/04/17 10:16:18;;;;;;;;;;;;;;;6.73;59.83;102051.69;4976163;28;3439;-96
2022/04/17 10:18:44;;;;;;;;;;;;;;;6.74;60.11;102055.22;4967336;28;1213;-96
2022/04/17 10:21:11;;;;;;;;;;;;;;;6.76;59.71;102045.16;4971832;28;3756;-96
2022/04/17 10:23:42;;;;;;;;;;;;;;;6.76;59.79;102042.50;4960416;28;1209;-96
2022/04/17 10:26:09;;;;;;;;;;;;;;;6.76;60.14;102035.28;4974190;28;3827;-96
2022/04/17 10:28:35;;;;;;;;;;;;;;;6.78;59.82;102040.50;4975092;28;3155;-96
2022/04/17 10:31:02;;;;;;;;;;;;;;;6.79;59.70;102039.50;4964500;28;1373;-96
2022/04/17 10:33:28;;;;;;;;;;;;;;;6.80;59.79;102023.28;4973939;28;3839;-96
2022/04/17 10:35:55;;;;;;;;;;;;;;;6.80;60.10;102031.31;4979127;28;1250;-96
2022/04/17 10:38:21;;;;;;;;;;;;;;;6.82;59.63;102028.47;4960266;28;3970;-96
2022/04/17 10:40:48;;;;;;;;;;;;;;;6.85;59.58;102024.63;4963316;28;3200;-96
2022/04/17 10:43:15;;;;;;;;;;;;;;;6.83;59.92;102020.28;4978106;28;1665;-96
2022/04/17 10:45:41;;;;;;;;;;;;;;;6.84;60.04;102023.78;4967162;28;1947;-96
2022/04/17 10:48:09;;;;;;;;;;;;;;;6.86;59.57;102024.50;4979163;28;1726;-96
2022/04/17 10:50:35;;;;;;;;;;;;;;;6.85;59.94;102021.97;4975477;28;3910;-96
2022/04/17 10:53:02;;;;;;;;;;;;;;;6.85;59.72;102019.28;4979479;28;3362;-96
2022/04/17 10:55:28;;;;;;;;;;;;;;;6.85;60.06;102013.91;4980285;28;1302;-96
2022/04/17 10:57:56;;;;;;;;;;;;;;;6.86;59.81;102012.94;4981393;28;2338;-96
2022/04/17 11:00:23;;;;;;;;;;;;;;;6.89;59.63;102009.94;4984773;28;1392;-96
2022/04/17 11:02:49;;;;;;;;;;;;;;;6.88;59.58;102009.06;4991675;28;3293;-96
2022/04/17 11:05:16;;;;;;;;;;;;;;;6.89;59.60;101999.22;4985572;28;2277;-96
2022/04/17 11:07:43;;;;;;;;;;;;;;;6.89;59.70;101996.56;4975688;28;1958;-96
2022/04/17 11:10:09;;;;;;;;;;;;;;;6.90;60.04;102000.91;4987201;28;2499;-96
2022/04/17 11:12:36;;;;;;;;;;;;;;;6.89;59.69;101997.38;4986957;28;4107;-96
2022/04/17 11:15:03;;;;;;;;;;;;;;;6.89;59.55;101999.22;4987833;28;2196;-96
2022/04/17 11:17:30;;;;;;;;;;;;;;;6.91;59.76;101998.06;4988293;28;1214;-96
2022/04/17 11:19:58;;;;;;;;;;;;;;;6.92;59.71;101996.22;4989002;28;1365;-96
2022/04/17 11:22:24;;;;;;;;;;;;;;;6.91;60.00;101990.03;4988801;28;1461;-96
2022/04/17 11:24:51;;;;;;;;;;;;;;;6.91;59.99;101990.03;4982449;28;1257;-96
2022/04/17 11:27:18;;;;;;;;;;;;;;;6.91;59.80;101986.50;4973786;28;2296;-96
2022/04/17 11:29:45;;;;;;;;;;;;;;;6.93;59.87;101979.97;4975069;28;1352;-96
2022/04/17 11:32:16;;;;;;;;;;;;;;;6.94;60.32;101980.81;5002785;28;1910;-96
2022/04/17 11:34:47;;;;;;;;;;;;;;;6.93;60.01;101985.34;4989984;28;1459;-96
2022/04/17 11:37:16;;;;;;;;;;;;;;;6.97;60.05;101980.50;4987095;28;1867;-96
2022/04/17 11:39:46;;;;;;;;;;;;;;;6.97;60.29;101977.81;4999044;28;988;-96
2022/04/17 11:42:15;;;;;;;;;;;;;;;6.97;60.04;101981.34;4996008;28;1396;-96
2022/04/17 11:44:57;;;;;;;;;;;;;;;6.98;60.24;101972.31;4995327;28;1383;-96
2022/04/17 11:47:28;;;;;;;;;;;;;;;6.97;60.07;101973.31;4996349;28;1241;-97
2022/04/17 11:49:57;;;;;;;;;;;;;;;6.97;60.29;101967.09;4996119;28;1471;-96
2022/04/17 11:52:28;;;;;;;;;;;;;;;6.97;60.53;101965.28;4995947;28;1891;-96
2022/04/17 11:54:56;;;;;;;;;;;;;;;6.97;60.41;101962.59;4996979;28;1269;-96
2022/04/17 11:57:23;;;;;;;;;;;;;;;6.98;60.23;101956.25;4980544;28;1402;-96
2022/04/17 11:59:55;;;;;;;;;;;;;;;6.99;60.31;101965.09;4988434;28;1325;-96
2022/04/17 12:02:23;;;;;;;;;;;;;;;7.02;60.27;101954.06;4997714;28;1325;-96
2022/04/17 12:04:59;;;;;;;;;;;;;;;7.02;60.27;101959.44;4981462;28;1207;-96
2022/04/17 12:10:10;;;;;;;;;;;;;;;7.04;60.60;101955.59;4994918;28;2516;-96
2022/04/17 12:12:41;;;;;;;;;;;;;;;7.05;60.65;101949.22;4998012;28;1907;-96
2022/04/17 12:20:38;;;;;;;;;;;;;;;7.10;60.38;101935.34;4996386;28;1495;-96
2022/04/17 12:23:06;;;;;;;;;;;;;;;7.12;60.76;101944.06;4998862;28;1293;-97
2022/04/17 12:28:19;;;;;;;;;;;;;;;7.14;60.89;101925.13;4996289;28;1690;-96
2022/04/17 12:30:56;;;;;;;;;;;;;;;7.15;60.64;101932.19;5000930;28;1290;-96
2022/04/17 12:33:31;;;;;;;;;;;;;;;7.18;60.67;101923.81;5001591;28;1954;-96
2022/04/17 12:36:06;;;;;;;;;;;;;;;7.18;60.81;101924.66;5015374;28;967;-96
2022/04/17 12:52:19;;;;;;;;;;;;;;;7.31;60.91;101901.91;5011665;28;1964;-96
2022/04/17 13:26:52;;;;;;;;;;;;;;;7.52;61.45;101899.56;5001330;28;1517;-96
2022/04/17 13:32:09;;;;;;;;;;;;;;;7.58;61.12;101892.69;5015955;28;1993;-96
2022/04/17 13:45:34;;;;;;;;;;;;;;;7.71;61.56;101880.47;4995934;28;1303;-96
2022/04/17 13:48:03;;;;;;;;;;;;;;;7.73;61.53;101872.25;4999102;28;1269;-96
2022/04/17 13:50:35;;;;;;;;;;;;;;;7.75;61.28;101870.25;4999093;28;1275;-96
2022/04/17 13:55:58;;;;;;;;;;;;;;;7.80;61.39;101867.06;4999744;28;1394;-96
2022/04/17 13:58:36;;;;;;;;;;;;;;;7.83;61.43;101861.34;4980578;28;1540;-96
2022/04/17 14:03:54;;;;;;;;;;;;;;;7.86;61.65;101855.66;4995905;28;1092;-96
2022/04/17 14:06:33;;;;;;;;;;;;;;;7.89;61.55;101853.47;4963553;28;1298;-96
2022/04/17 14:28:20;;;;;;;;;;;;;;;8.07;62.09;101847.06;4978203;28;1285;-96
2022/04/17 14:33:47;;;;;;;;;;;;;;;8.13;61.79;101851.72;4998055;28;1887;-96
2022/04/17 15:24:39;;;;;;;;;;;;;;;8.50;62.47;101791.22;5006556;28;1277;-96
2022/04/17 15:27:06;;;;;;;;;;;;;;;8.51;62.25;101798.28;4973243;28;2030;-95
2022/04/17 15:35:10;;;;;;;;;;;;;;;8.58;62.50;101793.84;4964117;28;1426;-96
2022/04/17 15:37:38;;;;;;;;;;;;;;;8.59;62.58;101785.63;4953592;29;2525;-96
2022/04/17 15:40:14;;;;;;;;;;;;;;;8.59;62.51;101796.38;4960150;29;1302;-96
2022/04/17 15:42:48;;;;;;;;;;;;;;;8.62;62.91;101785.28;4973602;28;2165;-96
2022/04/17 15:50:46;;;;;;;;;;;;;;;8.68;62.94;101775.69;4959969;29;1420;-96